sensor_id;sensor_type;location;lat;lon;timestamp;P1;durP1;ratioP1;P2;durP2;ratioP2
42146;SDS011;27815;43.410;11.852;2024-01-11T00:00:10;2.65;;;1.52;;
42146;SDS011;27815;43.410;11.852;2024-01-11T00:04:15;2.53;;;1.60;;
42146;SDS011;27815;43.410;11.852;2024-01-11T00:08:18;4.32;;;1.90;;
42146;SDS011;27815;43.410;11.852;2024-01-11T00:12:21;3.17;;;1.70;;
42146;SDS011;27815;43.410;11.852;2024-01-11T00:16:24;3.55;;;1.90;;
42146;SDS011;27815;43.410;11.852;2024-01-11T00:20:29;3.38;;;1.80;;
42146;SDS011;27815;43.410;11.852;2024-01-11T00:24:32;3.28;;;1.60;;
42146;SDS011;27815;43.410;11.852;2024-01-11T00:28:41;3.13;;;1.60;;
42146;SDS011;27815;43.410;11.852;2024-01-11T00:32:45;4.53;;;2.00;;
42146;SDS011;27815;43.410;11.852;2024-01-11T00:36:49;2.75;;;1.60;;
42146;SDS011;27815;43.410;11.852;2024-01-11T00:40:53;2.67;;;1.70;;
42146;SDS011;27815;43.410;11.852;2024-01-11T00:44:55;2.65;;;1.60;;
42146;SDS011;27815;43.410;11.852;2024-01-11T00:48:59;5.32;;;1.85;;
42146;SDS011;27815;43.410;11.852;2024-01-11T00:53:02;3.67;;;1.80;;
42146;SDS011;27815;43.410;11.852;2024-01-11T00:57:05;3.85;;;1.90;;
42146;SDS011;27815;43.410;11.852;2024-01-11T01:01:23;3.67;;;1.88;;
42146;SDS011;27815;43.410;11.852;2024-01-11T01:05:27;3.85;;;2.10;;
42146;SDS011;27815;43.410;11.852;2024-01-11T01:09:32;3.55;;;2.05;;
42146;SDS011;27815;43.410;11.852;2024-01-11T01:13:35;4.55;;;2.13;;
42146;SDS011;27815;43.410;11.852;2024-01-11T01:17:38;4.18;;;2.10;;
42146;SDS011;27815;43.410;11.852;2024-01-11T01:21:41;4.32;;;2.25;;
42146;SDS011;27815;43.410;11.852;2024-01-11T01:25:45;3.53;;;2.00;;
42146;SDS011;27815;43.410;11.852;2024-01-11T01:29:52;5.32;;;2.25;;
42146;SDS011;27815;43.410;11.852;2024-01-11T01:33:58;4.10;;;2.35;;
42146;SDS011;27815;43.410;11.852;2024-01-11T01:38:07;3.70;;;1.85;;
42146;SDS011;27815;43.410;11.852;2024-01-11T01:42:11;3.15;;;1.80;;
42146;SDS011;27815;43.410;11.852;2024-01-11T01:46:15;3.85;;;2.15;;
42146;SDS011;27815;43.410;11.852;2024-01-11T01:50:25;4.22;;;1.83;;
42146;SDS011;27815;43.410;11.852;2024-01-11T01:54:30;3.83;;;1.98;;
42146;SDS011;27815;43.410;11.852;2024-01-11T01:58:34;2.80;;;1.90;;
42146;SDS011;27815;43.410;11.852;2024-01-11T02:02:44;4.10;;;1.98;;
42146;SDS011;27815;43.410;11.852;2024-01-11T02:06:54;4.25;;;2.10;;
42146;SDS011;27815;43.410;11.852;2024-01-11T02:11:06;2.95;;;1.73;;
42146;SDS011;27815;43.410;11.852;2024-01-11T02:15:14;3.13;;;1.65;;
42146;SDS011;27815;43.410;11.852;2024-01-11T02:19:18;3.35;;;1.83;;
42146;SDS011;27815;43.410;11.852;2024-01-11T02:23:24;3.80;;;2.00;;
42146;SDS011;27815;43.410;11.852;2024-01-11T02:27:45;3.92;;;1.75;;
42146;SDS011;27815;43.410;11.852;2024-01-11T02:31:54;3.70;;;1.90;;
42146;SDS011;27815;43.410;11.852;2024-01-11T02:35:59;3.05;;;1.65;;
42146;SDS011;27815;43.410;11.852;2024-01-11T02:40:06;4.18;;;1.90;;
42146;SDS011;27815;43.410;11.852;2024-01-11T02:44:15;3.28;;;1.60;;
42146;SDS011;27815;43.410;11.852;2024-01-11T02:48:19;4.28;;;2.00;;
42146;SDS011;27815;43.410;11.852;2024-01-11T02:52:34;3.47;;;2.13;;
42146;SDS011;27815;43.410;11.852;2024-01-11T02:56:37;3.30;;;1.85;;
42146;SDS011;27815;43.410;11.852;2024-01-11T03:00:43;4.33;;;2.27;;
42146;SDS011;27815;43.410;11.852;2024-01-11T03:04:48;4.07;;;2.20;;
42146;SDS011;27815;43.410;11.852;2024-01-11T03:08:51;3.25;;;1.90;;
42146;SDS011;27815;43.410;11.852;2024-01-11T03:12:59;3.47;;;2.08;;
42146;SDS011;27815;43.410;11.852;2024-01-11T03:17:07;3.45;;;2.05;;
42146;SDS011;27815;43.410;11.852;2024-01-11T03:21:10;3.35;;;2.00;;
42146;SDS011;27815;43.410;11.852;2024-01-11T03:25:20;3.30;;;1.90;;
42146;SDS011;27815;43.410;11.852;2024-01-11T03:29:32;3.47;;;2.00;;
42146;SDS011;27815;43.410;11.852;2024-01-11T03:33:37;2.72;;;1.70;;
42146;SDS011;27815;43.410;11.852;2024-01-11T03:37:42;4.13;;;2.00;;
42146;SDS011;27815;43.410;11.852;2024-01-11T03:41:48;4.23;;;2.33;;
42146;SDS011;27815;43.410;11.852;2024-01-11T03:45:57;3.10;;;1.77;;
42146;SDS011;27815;43.410;11.852;2024-01-11T03:50:21;3.00;;;1.65;;
42146;SDS011;27815;43.410;11.852;2024-01-11T03:54:26;2.85;;;1.70;;
42146;SDS011;27815;43.410;11.852;2024-01-11T03:58:29;3.33;;;1.90;;
42146;SDS011;27815;43.410;11.852;2024-01-11T04:02:36;3.38;;;1.75;;
42146;SDS011;27815;43.410;11.852;2024-01-11T04:06:41;3.25;;;1.90;;
42146;SDS011;27815;43.410;11.852;2024-01-11T04:14:55;3.67;;;1.80;;
42146;SDS011;27815;43.410;11.852;2024-01-11T04:19:00;3.03;;;1.73;;
42146;SDS011;27815;43.410;11.852;2024-01-11T04:23:05;3.70;;;1.80;;
42146;SDS011;27815;43.410;11.852;2024-01-11T04:27:08;3.83;;;1.90;;
42146;SDS011;27815;43.410;11.852;2024-01-11T04:31:15;3.80;;;1.83;;
42146;SDS011;27815;43.410;11.852;2024-01-11T04:35:19;3.28;;;1.70;;
42146;SDS011;27815;43.410;11.852;2024-01-11T04:39:24;3.33;;;1.75;;
42146;SDS011;27815;43.410;11.852;2024-01-11T04:43:30;4.65;;;1.95;;
42146;SDS011;27815;43.410;11.852;2024-01-11T04:47:34;3.42;;;1.80;;
42146;SDS011;27815;43.410;11.852;2024-01-11T04:51:39;4.00;;;2.15;;
42146;SDS011;27815;43.410;11.852;2024-01-11T04:55:43;3.10;;;1.83;;
42146;SDS011;27815;43.410;11.852;2024-01-11T04:59:46;3.75;;;1.70;;
42146;SDS011;27815;43.410;11.852;2024-01-11T05:03:50;3.08;;;1.77;;
42146;SDS011;27815;43.410;11.852;2024-01-11T05:08:02;3.47;;;1.95;;
42146;SDS011;27815;43.410;11.852;2024-01-11T05:12:07;2.80;;;1.80;;
42146;SDS011;27815;43.410;11.852;2024-01-11T05:24:32;2.67;;;1.55;;
42146;SDS011;27815;43.410;11.852;2024-01-11T05:28:36;3.22;;;1.80;;
42146;SDS011;27815;43.410;11.852;2024-01-11T05:32:41;3.53;;;1.73;;
42146;SDS011;27815;43.410;11.852;2024-01-11T05:36:45;3.90;;;1.75;;
42146;SDS011;27815;43.410;11.852;2024-01-11T05:40:48;3.65;;;1.80;;
42146;SDS011;27815;43.410;11.852;2024-01-11T05:44:51;3.17;;;1.70;;
42146;SDS011;27815;43.410;11.852;2024-01-11T05:48:55;3.22;;;1.70;;
42146;SDS011;27815;43.410;11.852;2024-01-11T05:52:58;2.72;;;1.60;;
42146;SDS011;27815;43.410;11.852;2024-01-11T05:57:02;3.53;;;1.67;;
42146;SDS011;27815;43.410;11.852;2024-01-11T06:01:06;3.88;;;1.77;;
42146;SDS011;27815;43.410;11.852;2024-01-11T06:05:10;3.42;;;1.70;;
42146;SDS011;27815;43.410;11.852;2024-01-11T06:09:18;2.90;;;1.60;;
42146;SDS011;27815;43.410;11.852;2024-01-11T06:13:32;3.15;;;1.63;;
42146;SDS011;27815;43.410;11.852;2024-01-11T06:17:36;3.55;;;1.80;;
42146;SDS011;27815;43.410;11.852;2024-01-11T06:21:42;3.05;;;1.73;;
42146;SDS011;27815;43.410;11.852;2024-01-11T06:25:45;4.72;;;2.42;;
42146;SDS011;27815;43.410;11.852;2024-01-11T06:29:49;3.97;;;2.03;;
42146;SDS011;27815;43.410;11.852;2024-01-11T06:33:52;4.22;;;2.10;;
42146;SDS011;27815;43.410;11.852;2024-01-11T06:37:55;4.13;;;2.15;;
42146;SDS011;27815;43.410;11.852;2024-01-11T06:41:58;4.28;;;2.15;;
42146;SDS011;27815;43.410;11.852;2024-01-11T06:46:02;4.00;;;2.03;;
42146;SDS011;27815;43.410;11.852;2024-01-11T06:50:11;3.60;;;2.00;;
42146;SDS011;27815;43.410;11.852;2024-01-11T06:54:15;4.72;;;2.50;;
42146;SDS011;27815;43.410;11.852;2024-01-11T06:58:20;3.85;;;2.15;;
42146;SDS011;27815;43.410;11.852;2024-01-11T07:02:26;4.32;;;2.33;;
42146;SDS011;27815;43.410;11.852;2024-01-11T07:06:29;4.93;;;2.33;;
42146;SDS011;27815;43.410;11.852;2024-01-11T07:10:32;5.28;;;2.83;;
42146;SDS011;27815;43.410;11.852;2024-01-11T07:14:35;4.32;;;2.33;;
42146;SDS011;27815;43.410;11.852;2024-01-11T07:18:38;4.72;;;2.70;;
42146;SDS011;27815;43.410;11.852;2024-01-11T07:22:41;3.35;;;2.10;;
42146;SDS011;27815;43.410;11.852;2024-01-11T07:26:44;4.88;;;2.50;;
42146;SDS011;27815;43.410;11.852;2024-01-11T07:30:47;4.50;;;2.28;;
42146;SDS011;27815;43.410;11.852;2024-01-11T07:34:52;4.65;;;2.33;;
42146;SDS011;27815;43.410;11.852;2024-01-11T07:38:54;5.82;;;2.42;;
42146;SDS011;27815;43.410;11.852;2024-01-11T07:42:58;4.55;;;2.40;;
42146;SDS011;27815;43.410;11.852;2024-01-11T07:47:01;4.95;;;2.45;;
42146;SDS011;27815;43.410;11.852;2024-01-11T07:51:04;3.92;;;2.22;;
42146;SDS011;27815;43.410;11.852;2024-01-11T07:55:08;3.97;;;2.15;;
42146;SDS011;27815;43.410;11.852;2024-01-11T07:59:13;3.42;;;1.98;;
42146;SDS011;27815;43.410;11.852;2024-01-11T08:03:17;4.25;;;2.00;;
42146;SDS011;27815;43.410;11.852;2024-01-11T08:07:20;2.85;;;1.98;;
42146;SDS011;27815;43.410;11.852;2024-01-11T08:11:25;3.72;;;1.85;;
42146;SDS011;27815;43.410;11.852;2024-01-11T08:15:31;3.75;;;2.03;;
42146;SDS011;27815;43.410;11.852;2024-01-11T08:19:34;4.63;;;2.38;;
42146;SDS011;27815;43.410;11.852;2024-01-11T08:23:41;4.45;;;2.08;;
42146;SDS011;27815;43.410;11.852;2024-01-11T08:27:48;4.05;;;2.38;;
42146;SDS011;27815;43.410;11.852;2024-01-11T08:31:51;4.10;;;2.28;;
42146;SDS011;27815;43.410;11.852;2024-01-11T08:35:54;4.82;;;2.25;;
42146;SDS011;27815;43.410;11.852;2024-01-11T08:39:57;4.70;;;2.22;;
42146;SDS011;27815;43.410;11.852;2024-01-11T08:44:01;5.45;;;2.58;;
42146;SDS011;27815;43.410;11.852;2024-01-11T08:48:07;4.97;;;2.40;;
42146;SDS011;27815;43.410;11.852;2024-01-11T08:52:10;5.70;;;2.70;;
42146;SDS011;27815;43.410;11.852;2024-01-11T08:56:13;6.30;;;3.30;;
42146;SDS011;27815;43.410;11.852;2024-01-11T09:00:18;5.65;;;3.10;;
42146;SDS011;27815;43.410;11.852;2024-01-11T09:04:21;4.63;;;2.75;;
42146;SDS011;27815;43.410;11.852;2024-01-11T09:08:24;5.80;;;3.25;;
42146;SDS011;27815;43.410;11.852;2024-01-11T09:12:27;7.00;;;3.60;;
42146;SDS011;27815;43.410;11.852;2024-01-11T09:16:30;7.65;;;4.10;;
42146;SDS011;27815;43.410;11.852;2024-01-11T09:20:34;7.00;;;4.13;;
42146;SDS011;27815;43.410;11.852;2024-01-11T09:24:37;6.65;;;4.07;;
42146;SDS011;27815;43.410;11.852;2024-01-11T09:28:41;6.97;;;4.20;;
42146;SDS011;27815;43.410;11.852;2024-01-11T09:32:44;6.93;;;4.22;;
42146;SDS011;27815;43.410;11.852;2024-01-11T09:36:47;8.77;;;4.40;;
42146;SDS011;27815;43.410;11.852;2024-01-11T09:45:14;7.53;;;4.32;;
42146;SDS011;27815;43.410;11.852;2024-01-11T09:49:19;6.82;;;4.00;;
42146;SDS011;27815;43.410;11.852;2024-01-11T09:53:25;6.97;;;3.97;;
42146;SDS011;27815;43.410;11.852;2024-01-11T09:57:30;8.05;;;4.25;;
42146;SDS011;27815;43.410;11.852;2024-01-11T10:01:37;6.43;;;3.63;;
42146;SDS011;27815;43.410;11.852;2024-01-11T10:05:39;8.23;;;4.47;;
42146;SDS011;27815;43.410;11.852;2024-01-11T10:09:44;6.75;;;3.53;;
42146;SDS011;27815;43.410;11.852;2024-01-11T10:13:48;6.80;;;4.15;;
42146;SDS011;27815;43.410;11.852;2024-01-11T10:17:51;5.85;;;3.75;;
42146;SDS011;27815;43.410;11.852;2024-01-11T10:21:54;5.70;;;3.65;;
42146;SDS011;27815;43.410;11.852;2024-01-11T10:25:57;7.00;;;4.20;;
42146;SDS011;27815;43.410;11.852;2024-01-11T10:30:00;5.72;;;3.83;;
42146;SDS011;27815;43.410;11.852;2024-01-11T10:34:03;6.60;;;3.33;;
42146;SDS011;27815;43.410;11.852;2024-01-11T10:38:08;5.28;;;3.15;;
42146;SDS011;27815;43.410;11.852;2024-01-11T10:42:13;7.65;;;3.63;;
42146;SDS011;27815;43.410;11.852;2024-01-11T10:46:18;20.15;;;11.60;;
42146;SDS011;27815;43.410;11.852;2024-01-11T10:50:25;18.73;;;12.60;;
42146;SDS011;27815;43.410;11.852;2024-01-11T10:54:29;8.32;;;5.28;;
42146;SDS011;27815;43.410;11.852;2024-01-11T10:58:34;6.50;;;3.92;;
42146;SDS011;27815;43.410;11.852;2024-01-11T11:02:40;5.80;;;3.55;;
42146;SDS011;27815;43.410;11.852;2024-01-11T11:06:44;6.15;;;3.30;;
42146;SDS011;27815;43.410;11.852;2024-01-11T11:10:47;5.55;;;3.15;;
42146;SDS011;27815;43.410;11.852;2024-01-11T11:14:51;5.18;;;3.00;;
42146;SDS011;27815;43.410;11.852;2024-01-11T11:18:56;6.28;;;3.03;;
42146;SDS011;27815;43.410;11.852;2024-01-11T11:23:03;5.45;;;3.22;;
42146;SDS011;27815;43.410;11.852;2024-01-11T11:27:07;4.75;;;2.63;;
42146;SDS011;27815;43.410;11.852;2024-01-11T11:31:10;5.70;;;2.92;;
42146;SDS011;27815;43.410;11.852;2024-01-11T11:35:14;5.47;;;2.90;;
42146;SDS011;27815;43.410;11.852;2024-01-11T11:39:17;4.78;;;2.92;;
42146;SDS011;27815;43.410;11.852;2024-01-11T11:43:22;5.05;;;2.75;;
42146;SDS011;27815;43.410;11.852;2024-01-11T11:47:34;4.85;;;2.78;;
42146;SDS011;27815;43.410;11.852;2024-01-11T11:51:39;4.63;;;2.65;;
42146;SDS011;27815;43.410;11.852;2024-01-11T11:55:43;4.30;;;2.72;;
42146;SDS011;27815;43.410;11.852;2024-01-11T11:59:47;6.13;;;2.58;;
42146;SDS011;27815;43.410;11.852;2024-01-11T12:03:52;7.65;;;3.20;;
42146;SDS011;27815;43.410;11.852;2024-01-11T12:07:55;4.85;;;2.70;;
42146;SDS011;27815;43.410;11.852;2024-01-11T12:11:58;5.25;;;2.80;;
42146;SDS011;27815;43.410;11.852;2024-01-11T12:16:16;4.78;;;2.50;;
42146;SDS011;27815;43.410;11.852;2024-01-11T12:20:19;6.20;;;3.13;;
42146;SDS011;27815;43.410;11.852;2024-01-11T12:24:23;4.38;;;2.70;;
42146;SDS011;27815;43.410;11.852;2024-01-11T12:28:26;4.20;;;2.50;;
42146;SDS011;27815;43.410;11.852;2024-01-11T12:32:30;5.72;;;2.80;;
42146;SDS011;27815;43.410;11.852;2024-01-11T12:36:34;4.72;;;2.90;;
42146;SDS011;27815;43.410;11.852;2024-01-11T12:40:37;6.40;;;3.58;;
42146;SDS011;27815;43.410;11.852;2024-01-11T12:44:41;6.18;;;3.50;;
42146;SDS011;27815;43.410;11.852;2024-01-11T12:48:44;5.68;;;2.70;;
42146;SDS011;27815;43.410;11.852;2024-01-11T12:57:12;4.85;;;2.78;;
42146;SDS011;27815;43.410;11.852;2024-01-11T13:01:19;5.72;;;3.42;;
42146;SDS011;27815;43.410;11.852;2024-01-11T13:05:23;6.25;;;3.58;;
42146;SDS011;27815;43.410;11.852;2024-01-11T13:09:26;5.28;;;3.17;;
42146;SDS011;27815;43.410;11.852;2024-01-11T13:13:29;5.25;;;2.45;;
42146;SDS011;27815;43.410;11.852;2024-01-11T13:17:32;5.25;;;3.25;;
42146;SDS011;27815;43.410;11.852;2024-01-11T13:21:36;6.97;;;3.40;;
42146;SDS011;27815;43.410;11.852;2024-01-11T13:25:40;7.95;;;3.78;;
42146;SDS011;27815;43.410;11.852;2024-01-11T13:29:43;5.35;;;3.15;;
42146;SDS011;27815;43.410;11.852;2024-01-11T13:33:46;4.30;;;2.63;;
42146;SDS011;27815;43.410;11.852;2024-01-11T13:37:49;4.95;;;2.90;;
42146;SDS011;27815;43.410;11.852;2024-01-11T13:41:52;6.45;;;3.47;;
42146;SDS011;27815;43.410;11.852;2024-01-11T13:45:55;5.53;;;3.28;;
42146;SDS011;27815;43.410;11.852;2024-01-11T13:49:58;6.50;;;3.40;;
42146;SDS011;27815;43.410;11.852;2024-01-11T13:54:01;5.68;;;3.20;;
42146;SDS011;27815;43.410;11.852;2024-01-11T13:58:05;4.90;;;2.63;;
42146;SDS011;27815;43.410;11.852;2024-01-11T14:02:08;5.45;;;2.83;;
42146;SDS011;27815;43.410;11.852;2024-01-11T14:06:11;6.45;;;3.40;;
42146;SDS011;27815;43.410;11.852;2024-01-11T14:10:15;6.47;;;3.13;;
42146;SDS011;27815;43.410;11.852;2024-01-11T14:14:19;5.43;;;3.13;;
42146;SDS011;27815;43.410;11.852;2024-01-11T14:18:23;6.50;;;3.45;;
42146;SDS011;27815;43.410;11.852;2024-01-11T14:22:26;4.95;;;2.90;;
42146;SDS011;27815;43.410;11.852;2024-01-11T14:26:30;8.23;;;3.53;;
42146;SDS011;27815;43.410;11.852;2024-01-11T14:30:34;7.32;;;3.38;;
42146;SDS011;27815;43.410;11.852;2024-01-11T14:34:37;6.00;;;3.15;;
42146;SDS011;27815;43.410;11.852;2024-01-11T14:38:42;6.20;;;3.42;;
42146;SDS011;27815;43.410;11.852;2024-01-11T14:42:45;5.72;;;3.38;;
42146;SDS011;27815;43.410;11.852;2024-01-11T14:46:49;6.82;;;3.80;;
42146;SDS011;27815;43.410;11.852;2024-01-11T14:50:52;7.28;;;3.63;;
42146;SDS011;27815;43.410;11.852;2024-01-11T14:54:56;5.47;;;3.40;;
42146;SDS011;27815;43.410;11.852;2024-01-11T14:58:59;5.65;;;3.53;;
42146;SDS011;27815;43.410;11.852;2024-01-11T15:03:02;6.43;;;3.35;;
42146;SDS011;27815;43.410;11.852;2024-01-11T15:07:06;7.88;;;3.65;;
42146;SDS011;27815;43.410;11.852;2024-01-11T15:11:10;6.00;;;3.53;;
42146;SDS011;27815;43.410;11.852;2024-01-11T15:15:13;6.80;;;3.92;;
42146;SDS011;27815;43.410;11.852;2024-01-11T15:19:16;6.68;;;3.50;;
42146;SDS011;27815;43.410;11.852;2024-01-11T15:27:26;7.10;;;3.78;;
42146;SDS011;27815;43.410;11.852;2024-01-11T15:31:32;7.95;;;4.72;;
42146;SDS011;27815;43.410;11.852;2024-01-11T15:35:38;7.05;;;3.50;;
42146;SDS011;27815;43.410;11.852;2024-01-11T15:39:43;5.95;;;3.40;;
42146;SDS011;27815;43.410;11.852;2024-01-11T15:43:47;6.03;;;3.35;;
42146;SDS011;27815;43.410;11.852;2024-01-11T15:47:53;7.70;;;3.60;;
42146;SDS011;27815;43.410;11.852;2024-01-11T15:51:56;6.63;;;3.80;;
42146;SDS011;27815;43.410;11.852;2024-01-11T15:56:01;6.97;;;3.70;;
42146;SDS011;27815;43.410;11.852;2024-01-11T16:00:05;6.00;;;3.38;;
42146;SDS011;27815;43.410;11.852;2024-01-11T16:04:12;6.95;;;4.20;;
42146;SDS011;27815;43.410;11.852;2024-01-11T16:08:16;7.25;;;3.58;;
42146;SDS011;27815;43.410;11.852;2024-01-11T16:12:18;8.73;;;4.72;;
42146;SDS011;27815;43.410;11.852;2024-01-11T16:16:24;7.70;;;3.83;;
42146;SDS011;27815;43.410;11.852;2024-01-11T16:20:27;9.35;;;3.90;;
42146;SDS011;27815;43.410;11.852;2024-01-11T16:24:30;8.05;;;3.88;;
42146;SDS011;27815;43.410;11.852;2024-01-11T16:28:33;7.00;;;3.80;;
42146;SDS011;27815;43.410;11.852;2024-01-11T16:32:37;7.88;;;4.05;;
42146;SDS011;27815;43.410;11.852;2024-01-11T16:36:40;6.80;;;3.45;;
42146;SDS011;27815;43.410;11.852;2024-01-11T16:40:43;7.95;;;3.88;;
42146;SDS011;27815;43.410;11.852;2024-01-11T16:44:47;6.95;;;3.85;;
42146;SDS011;27815;43.410;11.852;2024-01-11T16:48:52;7.32;;;4.00;;
42146;SDS011;27815;43.410;11.852;2024-01-11T16:52:55;9.00;;;4.53;;
42146;SDS011;27815;43.410;11.852;2024-01-11T16:56:58;8.75;;;4.30;;
42146;SDS011;27815;43.410;11.852;2024-01-11T17:01:02;7.50;;;3.90;;
42146;SDS011;27815;43.410;11.852;2024-01-11T17:05:06;8.68;;;4.47;;
42146;SDS011;27815;43.410;11.852;2024-01-11T17:09:12;8.40;;;4.55;;
42146;SDS011;27815;43.410;11.852;2024-01-11T17:13:18;7.55;;;4.55;;
42146;SDS011;27815;43.410;11.852;2024-01-11T17:17:24;7.07;;;4.43;;
42146;SDS011;27815;43.410;11.852;2024-01-11T17:21:31;8.73;;;4.30;;
42146;SDS011;27815;43.410;11.852;2024-01-11T17:25:35;11.27;;;4.68;;
42146;SDS011;27815;43.410;11.852;2024-01-11T17:29:38;7.70;;;4.55;;
42146;SDS011;27815;43.410;11.852;2024-01-11T17:33:43;7.22;;;4.57;;
42146;SDS011;27815;43.410;11.852;2024-01-11T17:37:52;8.70;;;4.65;;
42146;SDS011;27815;43.410;11.852;2024-01-11T17:42:01;9.15;;;4.75;;
42146;SDS011;27815;43.410;11.852;2024-01-11T17:46:05;8.25;;;4.78;;
42146;SDS011;27815;43.410;11.852;2024-01-11T17:50:14;7.85;;;4.03;;
42146;SDS011;27815;43.410;11.852;2024-01-11T17:54:19;8.45;;;5.00;;
42146;SDS011;27815;43.410;11.852;2024-01-11T17:58:22;8.18;;;4.72;;
42146;SDS011;27815;43.410;11.852;2024-01-11T18:02:26;8.40;;;4.85;;
42146;SDS011;27815;43.410;11.852;2024-01-11T18:06:30;10.38;;;5.05;;
42146;SDS011;27815;43.410;11.852;2024-01-11T18:10:35;7.63;;;4.72;;
42146;SDS011;27815;43.410;11.852;2024-01-11T18:14:42;9.65;;;4.57;;
42146;SDS011;27815;43.410;11.852;2024-01-11T18:18:47;7.47;;;4.10;;
42146;SDS011;27815;43.410;11.852;2024-01-11T18:22:52;10.32;;;5.30;;
42146;SDS011;27815;43.410;11.852;2024-01-11T18:26:56;8.25;;;4.82;;
42146;SDS011;27815;43.410;11.852;2024-01-11T18:31:01;9.52;;;5.05;;
42146;SDS011;27815;43.410;11.852;2024-01-11T18:35:06;9.77;;;4.82;;
42146;SDS011;27815;43.410;11.852;2024-01-11T18:39:10;6.23;;;4.10;;
42146;SDS011;27815;43.410;11.852;2024-01-11T18:43:14;7.05;;;4.65;;
42146;SDS011;27815;43.410;11.852;2024-01-11T18:47:19;8.30;;;4.88;;
42146;SDS011;27815;43.410;11.852;2024-01-11T18:51:24;7.63;;;3.90;;
42146;SDS011;27815;43.410;11.852;2024-01-11T18:55:31;10.60;;;5.32;;
42146;SDS011;27815;43.410;11.852;2024-01-11T18:59:35;7.60;;;4.68;;
42146;SDS011;27815;43.410;11.852;2024-01-11T19:03:38;8.25;;;4.47;;
42146;SDS011;27815;43.410;11.852;2024-01-11T19:07:42;6.80;;;4.15;;
42146;SDS011;27815;43.410;11.852;2024-01-11T19:11:45;7.20;;;4.00;;
42146;SDS011;27815;43.410;11.852;2024-01-11T19:15:52;8.25;;;3.90;;
42146;SDS011;27815;43.410;11.852;2024-01-11T19:19:56;7.35;;;4.10;;
42146;SDS011;27815;43.410;11.852;2024-01-11T19:24:01;7.35;;;4.50;;
42146;SDS011;27815;43.410;11.852;2024-01-11T19:28:04;6.75;;;3.63;;
42146;SDS011;27815;43.410;11.852;2024-01-11T19:32:13;17.60;;;10.07;;
42146;SDS011;27815;43.410;11.852;2024-01-11T19:36:23;9.95;;;5.30;;
42146;SDS011;27815;43.410;11.852;2024-01-11T19:40:37;12.18;;;6.25;;
42146;SDS011;27815;43.410;11.852;2024-01-11T19:44:40;10.25;;;4.65;;
42146;SDS011;27815;43.410;11.852;2024-01-11T19:48:43;13.02;;;8.30;;
42146;SDS011;27815;43.410;11.852;2024-01-11T19:52:48;8.63;;;5.07;;
42146;SDS011;27815;43.410;11.852;2024-01-11T19:56:53;15.90;;;10.13;;
42146;SDS011;27815;43.410;11.852;2024-01-11T20:00:56;17.85;;;9.98;;
42146;SDS011;27815;43.410;11.852;2024-01-11T20:04:59;10.55;;;5.50;;
42146;SDS011;27815;43.410;11.852;2024-01-11T20:09:02;11.20;;;6.78;;
